sensor_id;sensor_type;location;lat;lon;timestamp;pressure;altitude;pressure_sealevel;temperature;humidity
50977;BME280;36992;48.200;12.418;2022-12-07T00:02:24;96651.34;;;6.72;56.46
50977;BME280;36992;48.200;12.418;2022-12-07T00:04:50;96643.84;;;6.74;56.57
50977;BME280;36992;48.200;12.418;2022-12-07T00:07:17;96648.13;;;6.75;56.26
50977;BME280;36992;48.200;12.418;2022-12-07T00:09:43;96643.31;;;6.77;56.17
50977;BME280;36992;48.200;12.418;2022-12-07T00:12:10;96648.69;;;6.77;55.97
50977;BME280;36992;48.200;12.418;2022-12-07T00:14:38;96639.56;;;6.78;55.81
50977;BME280;36992;48.200;12.418;2022-12-07T00:17:04;96648.13;;;6.75;56.23
50977;BME280;36992;48.200;12.418;2022-12-07T00:19:31;96644.66;;;6.74;56.30
50977;BME280;36992;48.200;12.418;2022-12-07T00:21:57;96641.72;;;6.76;56.36
50977;BME280;36992;48.200;12.418;2022-12-07T00:24:24;96647.06;;;6.76;56.24
50977;BME280;36992;48.200;12.418;2022-12-07T00:26:51;96640.66;;;6.77;56.17
50977;BME280;36992;48.200;12.418;2022-12-07T00:29:19;96637.41;;;6.80;56.36
50977;BME280;36992;48.200;12.418;2022-12-07T00:31:48;96644.94;;;6.83;56.17
50977;BME280;36992;48.200;12.418;2022-12-07T00:34:16;96638.50;;;6.84;56.24
50977;BME280;36992;48.200;12.418;2022-12-07T00:36:43;96641.44;;;6.83;55.71
50977;BME280;36992;48.200;12.418;2022-12-07T00:39:10;96634.22;;;6.83;55.94
50977;BME280;36992;48.200;12.418;2022-12-07T00:41:37;96635.00;;;6.84;55.88
50977;BME280;36992;48.200;12.418;2022-12-07T00:44:04;96639.56;;;6.83;55.65
50977;BME280;36992;48.200;12.418;2022-12-07T00:46:30;96638.75;;;6.83;55.65
50977;BME280;36992;48.200;12.418;2022-12-07T00:48:58;96641.44;;;6.83;55.53
50977;BME280;36992;48.200;12.418;2022-12-07T00:51:25;96635.28;;;6.82;55.92
50977;BME280;36992;48.200;12.418;2022-12-07T00:53:52;96635.28;;;6.82;55.96
50977;BME280;36992;48.200;12.418;2022-12-07T00:56:21;96637.69;;;6.84;56.14
50977;BME280;36992;48.200;12.418;2022-12-07T00:58:52;96635.25;;;6.87;55.87
50977;BME280;36992;48.200;12.418;2022-12-07T01:01:19;96637.69;;;6.84;55.79
50977;BME280;36992;48.200;12.418;2022-12-07T01:03:46;96636.06;;;6.83;55.57
50977;BME280;36992;48.200;12.418;2022-12-07T01:06:15;96635.00;;;6.84;55.53
50977;BME280;36992;48.200;12.418;2022-12-07T01:08:42;96639.03;;;6.81;55.72
50977;BME280;36992;48.200;12.418;2022-12-07T01:11:11;96635.56;;;6.81;55.61
50977;BME280;36992;48.200;12.418;2022-12-07T01:13:38;96633.13;;;6.79;55.92
50977;BME280;36992;48.200;12.418;2022-12-07T01:16:06;96641.97;;;6.80;55.61
50977;BME280;36992;48.200;12.418;2022-12-07T01:18:34;96630.47;;;6.79;55.44
50977;BME280;36992;48.200;12.418;2022-12-07T01:21:02;96635.00;;;6.79;55.74
50977;BME280;36992;48.200;12.418;2022-12-07T01:23:32;96635.28;;;6.82;55.61
50977;BME280;36992;48.200;12.418;2022-12-07T01:26:01;96632.06;;;6.80;55.30
50977;BME280;36992;48.200;12.418;2022-12-07T01:28:28;96634.22;;;6.78;55.38
50977;BME280;36992;48.200;12.418;2022-12-07T01:30:56;96637.41;;;6.80;55.49
50977;BME280;36992;48.200;12.418;2022-12-07T01:33:23;96627.78;;;6.79;55.65
50977;BME280;36992;48.200;12.418;2022-12-07T01:35:50;96635.81;;;6.79;55.41
50977;BME280;36992;48.200;12.418;2022-12-07T01:38:16;96632.06;;;6.80;55.72
50977;BME280;36992;48.200;12.418;2022-12-07T01:40:44;96630.97;;;6.81;55.52
50977;BME280;36992;48.200;12.418;2022-12-07T01:43:15;96633.94;;;6.85;55.61
50977;BME280;36992;48.200;12.418;2022-12-07T01:45:43;96634.47;;;6.82;55.73
50977;BME280;36992;48.200;12.418;2022-12-07T01:48:13;96628.88;;;6.83;55.69
50977;BME280;36992;48.200;12.418;2022-12-07T01:50:42;96626.19;;;6.83;55.54
50977;BME280;36992;48.200;12.418;2022-12-07T01:53:10;96629.94;;;6.82;55.66
50977;BME280;36992;48.200;12.418;2022-12-07T01:55:40;96632.63;;;6.82;55.19
50977;BME280;36992;48.200;12.418;2022-12-07T01:58:10;96629.94;;;6.82;55.49
50977;BME280;36992;48.200;12.418;2022-12-07T02:00:37;96627.25;;;6.77;55.21
50977;BME280;36992;48.200;12.418;2022-12-07T02:03:07;96631.53;;;6.78;55.48
50977;BME280;36992;48.200;12.418;2022-12-07T02:05:37;96637.16;;;6.77;55.10
50977;BME280;36992;48.200;12.418;2022-12-07T02:08:05;96635.03;;;6.73;55.22
50977;BME280;36992;48.200;12.418;2022-12-07T02:10:32;96631.00;;;6.71;55.61
50977;BME280;36992;48.200;12.418;2022-12-07T02:13:01;96638.75;;;6.72;55.77
50977;BME280;36992;48.200;12.418;2022-12-07T02:15:38;96628.84;;;6.73;55.86
50977;BME280;36992;48.200;12.418;2022-12-07T02:18:16;96627.78;;;6.74;55.65
50977;BME280;36992;48.200;12.418;2022-12-07T02:20:49;96626.72;;;6.75;55.53
50977;BME280;36992;48.200;12.418;2022-12-07T02:27:01;96626.44;;;6.77;55.61
50977;BME280;36992;48.200;12.418;2022-12-07T02:29:33;96624.59;;;6.72;55.32
50977;BME280;36992;48.200;12.418;2022-12-07T02:32:06;96628.03;;;6.72;55.65
50977;BME280;36992;48.200;12.418;2022-12-07T02:34:42;96633.41;;;6.72;55.19
50977;BME280;36992;48.200;12.418;2022-12-07T02:37:18;96629.94;;;6.72;55.55
50977;BME280;36992;48.200;12.418;2022-12-07T02:39:50;96629.94;;;6.72;55.32
50977;BME280;36992;48.200;12.418;2022-12-07T02:42:23;96631.00;;;6.71;55.64
50977;BME280;36992;48.200;12.418;2022-12-07T02:44:53;96629.41;;;6.70;55.80
50977;BME280;36992;48.200;12.418;2022-12-07T02:47:21;96626.75;;;6.70;55.32
50977;BME280;36992;48.200;12.418;2022-12-07T02:49:49;96621.38;;;6.70;55.44
50977;BME280;36992;48.200;12.418;2022-12-07T02:52:16;96625.09;;;6.69;55.61
50977;BME280;36992;48.200;12.418;2022-12-07T02:54:42;96625.09;;;6.69;55.23
50977;BME280;36992;48.200;12.418;2022-12-07T02:57:27;96617.88;;;6.74;55.51
50977;BME280;36992;48.200;12.418;2022-12-07T03:00:04;96622.44;;;6.74;55.41
50977;BME280;36992;48.200;12.418;2022-12-07T03:02:39;96613.88;;;6.72;55.33
50977;BME280;36992;48.200;12.418;2022-12-07T03:05:23;96617.63;;;6.71;55.17
50977;BME280;36992;48.200;12.418;2022-12-07T03:07:59;96619.75;;;6.69;55.07
50977;BME280;36992;48.200;12.418;2022-12-07T03:10:33;96620.31;;;6.66;54.94
50977;BME280;36992;48.200;12.418;2022-12-07T03:13:06;96612.28;;;6.66;55.46
50977;BME280;36992;48.200;12.418;2022-12-07T03:15:40;96618.97;;;6.63;55.20
50977;BME280;36992;48.200;12.418;2022-12-07T03:18:12;96624.56;;;6.61;55.34
50977;BME280;36992;48.200;12.418;2022-12-07T03:20:41;96619.78;;;6.58;55.10
50977;BME280;36992;48.200;12.418;2022-12-07T03:23:10;96618.19;;;6.57;55.63
50977;BME280;36992;48.200;12.418;2022-12-07T03:25:40;96620.03;;;6.57;55.53
50977;BME280;36992;48.200;12.418;2022-12-07T03:28:08;96610.41;;;6.56;55.64
50977;BME280;36992;48.200;12.418;2022-12-07T03:30:42;96613.88;;;6.56;55.22
50977;BME280;36992;48.200;12.418;2022-12-07T03:33:14;96618.44;;;6.56;55.11
50977;BME280;36992;48.200;12.418;2022-12-07T03:35:47;96613.34;;;6.54;55.47
50977;BME280;36992;48.200;12.418;2022-12-07T03:38:19;96606.38;;;6.53;55.59
50977;BME280;36992;48.200;12.418;2022-12-07T03:40:50;96602.63;;;6.54;55.87
50977;BME280;36992;48.200;12.418;2022-12-07T03:43:21;96606.13;;;6.50;55.22
50977;BME280;36992;48.200;12.418;2022-12-07T03:45:59;96600.22;;;6.53;55.20
50977;BME280;36992;48.200;12.418;2022-12-07T03:48:32;96596.22;;;6.50;55.37
50977;BME280;36992;48.200;12.418;2022-12-07T03:51:08;96596.22;;;6.50;55.25
50977;BME280;36992;48.200;12.418;2022-12-07T03:53:41;96599.44;;;6.47;55.39
50977;BME280;36992;48.200;12.418;2022-12-07T03:56:09;96591.66;;;6.45;55.35
50977;BME280;36992;48.200;12.418;2022-12-07T03:58:38;96602.38;;;6.45;55.35
50977;BME280;36992;48.200;12.418;2022-12-07T04:01:07;96600.25;;;6.47;55.34
50977;BME280;36992;48.200;12.418;2022-12-07T04:03:34;96597.84;;;6.46;55.40
50977;BME280;36992;48.200;12.418;2022-12-07T04:06:00;96605.88;;;6.46;54.93
50977;BME280;36992;48.200;12.418;2022-12-07T04:08:27;96600.78;;;6.44;55.30
50977;BME280;36992;48.200;12.418;2022-12-07T04:10:54;96597.28;;;6.44;55.42
50977;BME280;36992;48.200;12.418;2022-12-07T04:13:20;96591.13;;;6.43;55.72
50977;BME280;36992;48.200;12.418;2022-12-07T04:15:47;96596.22;;;6.45;56.01
50977;BME280;36992;48.200;12.418;2022-12-07T04:18:15;96588.47;;;6.48;56.08
50977;BME280;36992;48.200;12.418;2022-12-07T04:20:41;96594.91;;;6.47;55.06
50977;BME280;36992;48.200;12.418;2022-12-07T04:23:08;96597.56;;;6.47;54.77
50977;BME280;36992;48.200;12.418;2022-12-07T04:25:34;96598.34;;;6.48;55.45
50977;BME280;36992;48.200;12.418;2022-12-07T04:28:01;96592.22;;;6.47;55.41
50977;BME280;36992;48.200;12.418;2022-12-07T04:30:27;96597.28;;;6.49;55.87
50977;BME280;36992;48.200;12.418;2022-12-07T04:32:54;96598.09;;;6.50;55.07
50977;BME280;36992;48.200;12.418;2022-12-07T04:35:22;96589.81;;;6.51;55.28
50977;BME280;36992;48.200;12.418;2022-12-07T04:37:48;96589.25;;;6.49;55.20
50977;BME280;36992;48.200;12.418;2022-12-07T04:40:15;96588.19;;;6.50;55.24
50977;BME280;36992;48.200;12.418;2022-12-07T04:42:42;96581.78;;;6.51;55.83
50977;BME280;36992;48.200;12.418;2022-12-07T04:45:09;96581.78;;;6.51;54.77
50977;BME280;36992;48.200;12.418;2022-12-07T04:47:35;96588.72;;;6.52;55.37
50977;BME280;36992;48.200;12.418;2022-12-07T04:50:02;96587.66;;;6.53;55.59
50977;BME280;36992;48.200;12.418;2022-12-07T04:52:30;96598.88;;;6.55;55.17
50977;BME280;36992;48.200;12.418;2022-12-07T04:54:57;96597.28;;;6.54;54.96
50977;BME280;36992;48.200;12.418;2022-12-07T04:57:23;96602.38;;;6.56;54.99
50977;BME280;36992;48.200;12.418;2022-12-07T04:59:50;96599.44;;;6.52;55.21
50977;BME280;36992;48.200;12.418;2022-12-07T05:02:16;96594.88;;;6.53;55.22
50977;BME280;36992;48.200;12.418;2022-12-07T05:04:43;96601.56;;;6.50;55.63
50977;BME280;36992;48.200;12.418;2022-12-07T05:07:09;96600.78;;;6.50;55.58
50977;BME280;36992;48.200;12.418;2022-12-07T05:09:37;96593.00;;;6.48;55.54
50977;BME280;36992;48.200;12.418;2022-12-07T05:12:04;96588.22;;;6.45;55.54
50977;BME280;36992;48.200;12.418;2022-12-07T05:14:31;96591.94;;;6.44;55.58
50977;BME280;36992;48.200;12.418;2022-12-07T05:16:57;96584.97;;;6.43;55.85
50977;BME280;36992;48.200;12.418;2022-12-07T05:19:24;96593.00;;;6.43;55.70
50977;BME280;36992;48.200;12.418;2022-12-07T05:21:51;96585.25;;;6.41;56.03
50977;BME280;36992;48.200;12.418;2022-12-07T05:24:17;96583.94;;;6.39;55.58
50977;BME280;36992;48.200;12.418;2022-12-07T05:26:45;96588.97;;;6.40;55.79
50977;BME280;36992;48.200;12.418;2022-12-07T05:29:14;96593.81;;;6.38;55.81
50977;BME280;36992;48.200;12.418;2022-12-07T05:31:41;96590.31;;;6.38;56.18
50977;BME280;36992;48.200;12.418;2022-12-07T05:34:08;96590.31;;;6.38;56.08
50977;BME280;36992;48.200;12.418;2022-12-07T05:36:35;96589.28;;;6.39;56.09
50977;BME280;36992;48.200;12.418;2022-12-07T05:39:02;96594.06;;;6.42;56.15
50977;BME280;36992;48.200;12.418;2022-12-07T05:41:29;96586.06;;;6.42;55.97
50977;BME280;36992;48.200;12.418;2022-12-07T05:44:14;96590.59;;;6.46;55.49
50977;BME280;36992;48.200;12.418;2022-12-07T05:46:41;96586.56;;;6.44;55.39
50977;BME280;36992;48.200;12.418;2022-12-07T05:49:09;96594.59;;;6.44;55.62
50977;BME280;36992;48.200;12.418;2022-12-07T05:51:35;96583.63;;;6.45;55.64
50977;BME280;36992;48.200;12.418;2022-12-07T05:54:02;96597.03;;;6.45;55.67
50977;BME280;36992;48.200;12.418;2022-12-07T05:56:29;96593.56;;;6.45;55.38
50977;BME280;36992;48.200;12.418;2022-12-07T05:58:56;96572.16;;;6.45;55.77
50977;BME280;36992;48.200;12.418;2022-12-07T06:01:41;96580.69;;;6.47;56.12
50977;BME280;36992;48.200;12.418;2022-12-07T06:04:08;96596.22;;;6.45;55.75
50977;BME280;36992;48.200;12.418;2022-12-07T06:06:34;96596.75;;;6.47;55.69
50977;BME280;36992;48.200;12.418;2022-12-07T06:09:01;96596.75;;;6.47;55.94
50977;BME280;36992;48.200;12.418;2022-12-07T06:11:28;96602.09;;;6.47;55.95
50977;BME280;36992;48.200;12.418;2022-12-07T06:14:13;96599.44;;;6.47;56.11
50977;BME280;36992;48.200;12.418;2022-12-07T06:16:41;96605.31;;;6.49;54.95
50977;BME280;36992;48.200;12.418;2022-12-07T06:19:07;96608.81;;;6.50;55.21
50977;BME280;36992;48.200;12.418;2022-12-07T06:21:34;96600.78;;;6.50;55.16
50977;BME280;36992;48.200;12.418;2022-12-07T06:24:01;96606.13;;;6.50;54.90
50977;BME280;36992;48.200;12.418;2022-12-07T06:26:28;96613.91;;;6.51;55.18
50977;BME280;36992;48.200;12.418;2022-12-07T06:28:54;96615.50;;;6.52;55.47
50977;BME280;36992;48.200;12.418;2022-12-07T06:31:21;96606.38;;;6.53;55.34
50977;BME280;36992;48.200;12.418;2022-12-07T06:33:49;96609.59;;;6.55;55.47
50977;BME280;36992;48.200;12.418;2022-12-07T06:36:15;96611.19;;;6.56;55.23
50977;BME280;36992;48.200;12.418;2022-12-07T06:38:42;96618.19;;;6.57;55.58
50977;BME280;36992;48.200;12.418;2022-12-07T06:41:08;96615.22;;;6.59;55.49
50977;BME280;36992;48.200;12.418;2022-12-07T06:43:35;96621.38;;;6.59;55.41
50977;BME280;36992;48.200;12.418;2022-12-07T06:46:03;96623.50;;;6.63;55.47
50977;BME280;36992;48.200;12.418;2022-12-07T06:48:30;96610.13;;;6.63;54.99
50977;BME280;36992;48.200;12.418;2022-12-07T06:50:58;96617.88;;;6.64;55.01
50977;BME280;36992;48.200;12.418;2022-12-07T06:53:24;96610.13;;;6.63;55.24
50977;BME280;36992;48.200;12.418;2022-12-07T06:55:51;96617.88;;;6.64;55.02
50977;BME280;36992;48.200;12.418;2022-12-07T06:58:18;96613.34;;;6.65;54.95
50977;BME280;36992;48.200;12.418;2022-12-07T07:00:44;96621.09;;;6.66;55.28
50977;BME280;36992;48.200;12.418;2022-12-07T07:03:11;96625.66;;;6.66;55.13
50977;BME280;36992;48.200;12.418;2022-12-07T07:05:38;96627.25;;;6.67;55.24
50977;BME280;36992;48.200;12.418;2022-12-07T07:08:06;96633.13;;;6.69;55.28
50977;BME280;36992;48.200;12.418;2022-12-07T07:10:32;96626.19;;;6.68;55.13
50977;BME280;36992;48.200;12.418;2022-12-07T07:12:59;96631.78;;;6.66;55.13
50977;BME280;36992;48.200;12.418;2022-12-07T07:15:25;96637.16;;;6.66;55.21
50977;BME280;36992;48.200;12.418;2022-12-07T07:17:52;96632.09;;;6.65;55.11
50977;BME280;36992;48.200;12.418;2022-12-07T07:20:19;96631.53;;;6.63;54.93
50977;BME280;36992;48.200;12.418;2022-12-07T07:22:45;96637.19;;;6.61;55.35
50977;BME280;36992;48.200;12.418;2022-12-07T07:25:14;96637.19;;;6.61;55.47
50977;BME280;36992;48.200;12.418;2022-12-07T07:27:40;96643.06;;;6.58;55.67
50977;BME280;36992;48.200;12.418;2022-12-07T07:30:08;96629.66;;;6.58;55.80
50977;BME280;36992;48.200;12.418;2022-12-07T07:32:34;96628.88;;;6.57;55.65
50977;BME280;36992;48.200;12.418;2022-12-07T07:35:01;96629.66;;;6.58;55.78
50977;BME280;36992;48.200;12.418;2022-12-07T07:37:28;96630.75;;;6.57;55.92
50977;BME280;36992;48.200;12.418;2022-12-07T07:39:54;96630.47;;;6.58;55.89
50977;BME280;36992;48.200;12.418;2022-12-07T07:42:23;96626.47;;;6.61;56.08
50977;BME280;36992;48.200;12.418;2022-12-07T07:44:49;96618.69;;;6.59;55.70
50977;BME280;36992;48.200;12.418;2022-12-07T07:47:16;96628.34;;;6.60;55.93
50977;BME280;36992;48.200;12.418;2022-12-07T07:49:42;96622.97;;;6.60;55.71
50977;BME280;36992;48.200;12.418;2022-12-07T07:52:09;96631.53;;;6.63;55.46
50977;BME280;36992;48.200;12.418;2022-12-07T07:54:36;96624.56;;;6.61;55.52
50977;BME280;36992;48.200;12.418;2022-12-07T07:57:02;96628.34;;;6.60;55.80
50977;BME280;36992;48.200;12.418;2022-12-07T07:59:30;96627.25;;;6.61;55.74
50977;BME280;36992;48.200;12.418;2022-12-07T08:01:57;96629.66;;;6.58;55.54
50977;BME280;36992;48.200;12.418;2022-12-07T08:04:24;96630.75;;;6.57;55.76
50977;BME280;36992;48.200;12.418;2022-12-07T08:06:51;96627.25;;;6.56;55.49
50977;BME280;36992;48.200;12.418;2022-12-07T08:09:17;96638.78;;;6.57;55.81
50977;BME280;36992;48.200;12.418;2022-12-07T08:11:44;96631.00;;;6.55;55.54
50977;BME280;36992;48.200;12.418;2022-12-07T08:14:11;96634.75;;;6.54;55.35
50977;BME280;36992;48.200;12.418;2022-12-07T08:16:39;96642.78;;;6.54;55.09
50977;BME280;36992;48.200;12.418;2022-12-07T08:19:06;96635.81;;;6.53;55.47
50977;BME280;36992;48.200;12.418;2022-12-07T08:21:32;96643.84;;;6.53;55.62
50977;BME280;36992;48.200;12.418;2022-12-07T08:23:59;96652.97;;;6.52;55.54
50977;BME280;36992;48.200;12.418;2022-12-07T08:26:25;96648.41;;;6.53;55.83
50977;BME280;36992;48.200;12.418;2022-12-07T08:28:52;96642.25;;;6.52;55.81
50977;BME280;36992;48.200;12.418;2022-12-07T08:31:19;96649.22;;;6.53;55.56
50977;BME280;36992;48.200;12.418;2022-12-07T08:33:47;96648.13;;;6.54;55.46
50977;BME280;36992;48.200;12.418;2022-12-07T08:36:15;96647.63;;;6.52;55.81
50977;BME280;36992;48.200;12.418;2022-12-07T08:38:42;96652.41;;;6.50;55.66
50977;BME280;36992;48.200;12.418;2022-12-07T08:41:09;96646.28;;;6.50;55.89
50977;BME280;36992;48.200;12.418;2022-12-07T08:43:36;96646.00;;;6.51;55.81
50977;BME280;36992;48.200;12.418;2022-12-07T08:46:07;96649.22;;;6.53;55.75
50977;BME280;36992;48.200;12.418;2022-12-07T08:48:37;96648.69;;;6.51;56.00
50977;BME280;36992;48.200;12.418;2022-12-07T08:51:06;96648.69;;;6.51;55.86
50977;BME280;36992;48.200;12.418;2022-12-07T08:53:34;96648.69;;;6.51;56.20
50977;BME280;36992;48.200;12.418;2022-12-07T08:56:02;96649.72;;;6.50;55.92
50977;BME280;36992;48.200;12.418;2022-12-07T08:58:29;96652.97;;;6.52;56.27
50977;BME280;36992;48.200;12.418;2022-12-07T09:00:55;96661.78;;;6.53;55.91
50977;BME280;36992;48.200;12.418;2022-12-07T09:03:22;96666.09;;;6.54;56.04
50977;BME280;36992;48.200;12.418;2022-12-07T09:05:48;96669.03;;;6.52;56.01
50977;BME280;36992;48.200;12.418;2022-12-07T09:08:16;96671.16;;;6.55;56.08
50977;BME280;36992;48.200;12.418;2022-12-07T09:10:43;96670.38;;;6.55;56.18
50977;BME280;36992;48.200;12.418;2022-12-07T09:13:09;96669.28;;;6.56;56.42
50977;BME280;36992;48.200;12.418;2022-12-07T09:15:36;96670.63;;;6.58;56.33
50977;BME280;36992;48.200;12.418;2022-12-07T09:18:03;96671.97;;;6.61;56.21
50977;BME280;36992;48.200;12.418;2022-12-07T09:20:29;96665.28;;;6.64;55.86
50977;BME280;36992;48.200;12.418;2022-12-07T09:22:56;96656.72;;;6.67;55.84
50977;BME280;36992;48.200;12.418;2022-12-07T09:25:24;96653.50;;;6.70;55.91
50977;BME280;36992;48.200;12.418;2022-12-07T09:27:55;96655.38;;;6.74;55.68
50977;BME280;36992;48.200;12.418;2022-12-07T09:30:22;96664.75;;;6.72;55.55
50977;BME280;36992;48.200;12.418;2022-12-07T09:32:48;96665.53;;;6.72;55.57
50977;BME280;36992;48.200;12.418;2022-12-07T09:35:15;96669.03;;;6.73;55.45
50977;BME280;36992;48.200;12.418;2022-12-07T09:37:42;96671.16;;;6.71;55.47
50977;BME280;36992;48.200;12.418;2022-12-07T09:40:09;96662.06;;;6.72;55.63
50977;BME280;36992;48.200;12.418;2022-12-07T09:42:39;96659.91;;;6.74;55.60
50977;BME280;36992;48.200;12.418;2022-12-07T09:45:14;96657.50;;;6.72;55.71
50977;BME280;36992;48.200;12.418;2022-12-07T09:47:42;96653.50;;;6.70;55.85
50977;BME280;36992;48.200;12.418;2022-12-07T09:50:14;96652.13;;;6.72;56.09
50977;BME280;36992;48.200;12.418;2022-12-07T09:52:42;96649.75;;;6.71;56.01
50977;BME280;36992;48.200;12.418;2022-12-07T09:55:12;96650.81;;;6.75;56.03
50977;BME280;36992;48.200;12.418;2022-12-07T09:57:41;96651.34;;;6.77;55.73
50977;BME280;36992;48.200;12.418;2022-12-07T10:00:12;96650.28;;;6.78;55.77
50977;BME280;36992;48.200;12.418;2022-12-07T10:02:42;96647.59;;;6.78;55.57
50977;BME280;36992;48.200;12.418;2022-12-07T10:05:13;96637.41;;;6.80;55.63
50977;BME280;36992;48.200;12.418;2022-12-07T10:07:41;96643.31;;;6.77;55.47
50977;BME280;36992;48.200;12.418;2022-12-07T10:10:14;96641.44;;;6.83;55.68
50977;BME280;36992;48.200;12.418;2022-12-07T10:12:59;96647.06;;;6.86;55.73
50977;BME280;36992;48.200;12.418;2022-12-07T10:15:45;96637.94;;;6.87;55.64
50977;BME280;36992;48.200;12.418;2022-12-07T10:18:33;96640.63;;;6.87;55.76
50977;BME280;36992;48.200;12.418;2022-12-07T10:21:13;96638.22;;;6.86;55.53
50977;BME280;36992;48.200;12.418;2022-12-07T10:23:42;96630.97;;;6.86;55.23
50977;BME280;36992;48.200;12.418;2022-12-07T10:26:28;96636.34;;;6.92;55.45
50977;BME280;36992;48.200;12.418;2022-12-07T10:28:59;96627.22;;;6.93;55.42
50977;BME280;36992;48.200;12.418;2022-12-07T10:31:26;96628.84;;;6.88;55.13
50977;BME280;36992;48.200;12.418;2022-12-07T10:33:54;96622.13;;;6.91;55.25
50977;BME280;36992;48.200;12.418;2022-12-07T10:36:24;96622.44;;;6.95;55.34
50977;BME280;36992;48.200;12.418;2022-12-07T10:38:58;96620.78;;;6.94;55.09
50977;BME280;36992;48.200;12.418;2022-12-07T10:41:25;96614.38;;;6.95;55.54
50977;BME280;36992;48.200;12.418;2022-12-07T10:43:53;96617.06;;;6.95;55.03
50977;BME280;36992;48.200;12.418;2022-12-07T10:46:45;96616.50;;;7.03;55.28
50977;BME280;36992;48.200;12.418;2022-12-07T10:52:15;96612.22;;;7.02;55.10
50977;BME280;36992;48.200;12.418;2022-12-07T10:54:50;96613.31;;;7.01;55.11
50977;BME280;36992;48.200;12.418;2022-12-07T10:57:32;96614.09;;;7.01;55.13
50977;BME280;36992;48.200;12.418;2022-12-07T11:00:13;96610.59;;;7.06;55.05
50977;BME280;36992;48.200;12.418;2022-12-07T11:03:07;96611.13;;;7.08;55.01
50977;BME280;36992;48.200;12.418;2022-12-07T11:05:48;96600.97;;;7.05;54.53
50977;BME280;36992;48.200;12.418;2022-12-07T11:08:21;96594.00;;;7.09;54.54
50977;BME280;36992;48.200;12.418;2022-12-07T11:10:56;96599.09;;;7.11;54.65
50977;BME280;36992;48.200;12.418;2022-12-07T11:13:29;96588.38;;;7.11;54.88
50977;BME280;36992;48.200;12.418;2022-12-07T11:16:16;96583.78;;;7.17;54.81
50977;BME280;36992;48.200;12.418;2022-12-07T11:18:54;96581.91;;;7.17;54.38
50977;BME280;36992;48.200;12.418;2022-12-07T11:21:30;96582.69;;;7.18;54.02
50977;BME280;36992;48.200;12.418;2022-12-07T11:24:04;96586.72;;;7.20;54.15
50977;BME280;36992;48.200;12.418;2022-12-07T11:26:42;96578.16;;;7.23;54.46
50977;BME280;36992;48.200;12.418;2022-12-07T11:29:27;96584.03;;;7.25;54.15
50977;BME280;36992;48.200;12.418;2022-12-07T11:32:04;96582.44;;;7.24;53.25
50977;BME280;36992;48.200;12.418;2022-12-07T11:34:39;96578.91;;;7.29;53.48
50977;BME280;36992;48.200;12.418;2022-12-07T11:37:16;96572.22;;;7.32;53.57
50977;BME280;36992;48.200;12.418;2022-12-07T11:39:48;96571.66;;;7.35;53.23
50977;BME280;36992;48.200;12.418;2022-12-07T11:42:20;96577.56;;;7.37;52.55
50977;BME280;36992;48.200;12.418;2022-12-07T11:44:52;96569.75;;;7.40;52.84
50977;BME280;36992;48.200;12.418;2022-12-07T11:47:25;96564.41;;;7.40;51.91
50977;BME280;36992;48.200;12.418;2022-12-07T11:50:01;96567.84;;;7.46;52.61
50977;BME280;36992;48.200;12.418;2022-12-07T11:52:33;96551.50;;;7.48;52.33
50977;BME280;36992;48.200;12.418;2022-12-07T11:55:19;96553.09;;;7.49;52.36
50977;BME280;36992;48.200;12.418;2022-12-07T11:57:53;96548.28;;;7.51;52.03
50977;BME280;36992;48.200;12.418;2022-12-07T12:00:23;96546.66;;;7.50;51.21
50977;BME280;36992;48.200;12.418;2022-12-07T12:02:55;96542.94;;;7.51;51.10
50977;BME280;36992;48.200;12.418;2022-12-07T12:05:26;96543.97;;;7.50;49.84
50977;BME280;36992;48.200;12.418;2022-12-07T12:08:00;96546.63;;;7.55;51.31
50977;BME280;36992;48.200;12.418;2022-12-07T12:10:37;96543.44;;;7.53;50.99
50977;BME280;36992;48.200;12.418;2022-12-07T12:13:32;96531.09;;;7.57;51.86
50977;BME280;36992;48.200;12.418;2022-12-07T12:16:22;96537.25;;;7.58;51.70
50977;BME280;36992;48.200;12.418;2022-12-07T12:19:10;96540.44;;;7.60;52.01
50977;BME280;36992;48.200;12.418;2022-12-07T12:21:46;96532.69;;;7.58;51.69
50977;BME280;36992;48.200;12.418;2022-12-07T12:24:18;96533.78;;;7.57;51.33
50977;BME280;36992;48.200;12.418;2022-12-07T12:26:50;96528.41;;;7.57;51.47
50977;BME280;36992;48.200;12.418;2022-12-07T12:29:21;96531.09;;;7.57;50.11
50977;BME280;36992;48.200;12.418;2022-12-07T12:32:07;96530.53;;;7.60;50.90
50977;BME280;36992;48.200;12.418;2022-12-07T12:34:40;96530.03;;;7.53;48.81
50977;BME280;36992;48.200;12.418;2022-12-07T12:37:39;96531.88;;;7.58;50.77
50977;BME280;36992;48.200;12.418;2022-12-07T12:40:40;96530.28;;;7.56;50.25
50977;BME280;36992;48.200;12.418;2022-12-07T12:43:46;96527.59;;;7.56;50.57
50977;BME280;36992;48.200;12.418;2022-12-07T12:46:51;96531.91;;;7.52;50.37
50977;BME280;36992;48.200;12.418;2022-12-07T12:49:40;96529.53;;;7.51;50.29
50977;BME280;36992;48.200;12.418;2022-12-07T12:55:17;96524.69;;;7.53;50.84
50977;BME280;36992;48.200;12.418;2022-12-07T12:57:47;96526.88;;;7.40;47.58
50977;BME280;36992;48.200;12.418;2022-12-07T13:00:19;96522.06;;;7.37;48.58
50977;BME280;36992;48.200;12.418;2022-12-07T13:02:49;96524.22;;;7.35;48.29
50977;BME280;36992;48.200;12.418;2022-12-07T13:05:19;96524.78;;;7.32;47.91
50977;BME280;36992;48.200;12.418;2022-12-07T13:07:55;96519.97;;;7.29;48.51
50977;BME280;36992;48.200;12.418;2022-12-07T13:10:33;96520.53;;;7.26;48.01
50977;BME280;36992;48.200;12.418;2022-12-07T13:13:05;96522.94;;;7.22;47.80
50977;BME280;36992;48.200;12.418;2022-12-07T13:15:49;96524.31;;;7.20;47.60
50977;BME280;36992;48.200;12.418;2022-12-07T13:18:23;96519.47;;;7.22;48.45
50977;BME280;36992;48.200;12.418;2022-12-07T13:20:53;96518.66;;;7.21;48.13
50977;BME280;36992;48.200;12.418;2022-12-07T13:23:23;96515.19;;;7.21;47.99
50977;BME280;36992;48.200;12.418;2022-12-07T13:25:55;96516.53;;;7.23;48.18
50977;BME280;36992;48.200;12.418;2022-12-07T13:28:27;96518.91;;;7.25;47.91